Overview Statistics Trail Chart Weather Telemetry Raw packets
 

This is the latest recevied weather packets stored in our database for station/object EA4URC-10. If no packets are shown the sender has not sent any weather packets the latest 10 day(s).

<< 10 11 12 13 14 15 16 >>
Time Temp. Humidity Pressure Rain* Wind** Luminosity Snow
1788111588 27.22° C 19% 1035 hPa - - - -
1788109787 27.22° C 19% 1034.9 hPa - - - -
1788107987 27.22° C 19% 1034.8 hPa - - - -
1788106186 27.78° C 18% 1035 hPa - - - -
1788104386 29.44° C 16% 1035.1 hPa - - - -
1788102585 31.11° C 14% 1034.9 hPa - - - -
1788100791 31.67° C 15% 1035.2 hPa - - - -
1788098990 31.11° C 16% 1035.5 hPa - - - -
1788097191 31.11° C 16% 1035.7 hPa - - - -
1788095389 31.11° C 16% 1035.9 hPa - - - -
1788093588 31.11° C 15% 1036 hPa - - - -
1788091788 31.11° C 16% 1036.1 hPa - - - -
1788089987 31.67° C 15% 1036.3 hPa - - - -
1788088186 29.44° C 17% 1036.3 hPa - - - -
1788086386 30.56° C 17% 1036.6 hPa - - - -
1788084585 29.44° C 18% 1036.7 hPa - - - -
1788082785 26.67° C 19% 1036.5 hPa - - - -
1788080984 26.67° C 20% 1036.4 hPa - - - -
1788079190 26.67° C 21% 1036.4 hPa - - - -
1788077389 25° C 22% 1036.3 hPa - - - -
1788075588 23.33° C 23% 1036.2 hPa - - - -
1788073788 22.22° C 25% 1036.1 hPa - - - -
1788071987 20.56° C 27% 1036 hPa - - - -
1788070187 18.33° C 30% 1035.9 hPa - - - -
1788068386 17.22° C 32% 1035.8 hPa - - - -

* Rain since midnight (hover to see other rain measurements)
** Current wind speed in m/s (hover to see current wind gust speed)